sensor_id;sensor_type;location;lat;lon;timestamp;P1;durP1;ratioP1;P2;durP2;ratioP2
28074;SDS011;15385;51.088;6.572;2022-08-20T00:02:10;7.50;;;4.13;;
28074;SDS011;15385;51.088;6.572;2022-08-20T00:04:40;6.85;;;4.25;;
28074;SDS011;15385;51.088;6.572;2022-08-20T00:07:12;10.40;;;3.97;;
28074;SDS011;15385;51.088;6.572;2022-08-20T00:09:43;6.78;;;3.90;;
28074;SDS011;15385;51.088;6.572;2022-08-20T00:12:15;6.78;;;4.55;;
28074;SDS011;15385;51.088;6.572;2022-08-20T00:14:46;7.32;;;4.20;;
28074;SDS011;15385;51.088;6.572;2022-08-20T00:17:16;6.05;;;4.13;;
28074;SDS011;15385;51.088;6.572;2022-08-20T00:19:47;7.75;;;3.53;;
28074;SDS011;15385;51.088;6.572;2022-08-20T00:22:18;6.78;;;3.83;;
28074;SDS011;15385;51.088;6.572;2022-08-20T00:24:48;6.75;;;4.45;;
28074;SDS011;15385;51.088;6.572;2022-08-20T00:27:19;9.32;;;4.40;;
28074;SDS011;15385;51.088;6.572;2022-08-20T00:29:49;6.63;;;4.35;;
28074;SDS011;15385;51.088;6.572;2022-08-20T00:32:20;9.52;;;3.58;;
28074;SDS011;15385;51.088;6.572;2022-08-20T00:34:51;6.28;;;3.17;;
28074;SDS011;15385;51.088;6.572;2022-08-20T00:37:22;6.03;;;3.83;;
28074;SDS011;15385;51.088;6.572;2022-08-20T00:39:52;9.63;;;4.10;;
28074;SDS011;15385;51.088;6.572;2022-08-20T00:42:23;6.95;;;3.55;;
28074;SDS011;15385;51.088;6.572;2022-08-20T00:44:54;7.43;;;3.38;;
28074;SDS011;15385;51.088;6.572;2022-08-20T00:47:24;4.57;;;3.25;;
28074;SDS011;15385;51.088;6.572;2022-08-20T00:49:56;7.15;;;3.38;;
28074;SDS011;15385;51.088;6.572;2022-08-20T00:52:27;5.80;;;3.33;;
28074;SDS011;15385;51.088;6.572;2022-08-20T00:54:59;7.03;;;3.47;;
28074;SDS011;15385;51.088;6.572;2022-08-20T00:57:51;4.85;;;2.92;;
28074;SDS011;15385;51.088;6.572;2022-08-20T01:00:24;5.38;;;2.83;;
28074;SDS011;15385;51.088;6.572;2022-08-20T01:03:01;6.15;;;3.33;;
28074;SDS011;15385;51.088;6.572;2022-08-20T01:05:32;6.50;;;2.92;;
28074;SDS011;15385;51.088;6.572;2022-08-20T01:08:04;4.82;;;2.55;;
28074;SDS011;15385;51.088;6.572;2022-08-20T01:10:36;4.82;;;2.63;;
28074;SDS011;15385;51.088;6.572;2022-08-20T01:13:12;3.83;;;2.45;;
28074;SDS011;15385;51.088;6.572;2022-08-20T01:15:47;7.15;;;2.60;;
28074;SDS011;15385;51.088;6.572;2022-08-20T01:18:23;6.93;;;2.38;;
28074;SDS011;15385;51.088;6.572;2022-08-20T01:20:58;3.60;;;2.50;;
28074;SDS011;15385;51.088;6.572;2022-08-20T01:31:34;5.57;;;2.33;;
28074;SDS011;15385;51.088;6.572;2022-08-20T01:34:08;6.60;;;2.50;;
28074;SDS011;15385;51.088;6.572;2022-08-20T01:36:43;4.47;;;2.10;;
28074;SDS011;15385;51.088;6.572;2022-08-20T01:39:16;7.43;;;2.97;;
28074;SDS011;15385;51.088;6.572;2022-08-20T01:41:59;4.57;;;2.33;;
28074;SDS011;15385;51.088;6.572;2022-08-20T01:44:51;4.18;;;2.45;;
28074;SDS011;15385;51.088;6.572;2022-08-20T01:47:27;3.70;;;2.40;;
28074;SDS011;15385;51.088;6.572;2022-08-20T01:50:03;4.75;;;2.50;;
28074;SDS011;15385;51.088;6.572;2022-08-20T01:52:47;4.55;;;2.50;;
28074;SDS011;15385;51.088;6.572;2022-08-20T01:55:49;5.85;;;2.53;;
28074;SDS011;15385;51.088;6.572;2022-08-20T01:58:19;4.75;;;2.33;;
28074;SDS011;15385;51.088;6.572;2022-08-20T02:00:50;7.63;;;2.90;;
28074;SDS011;15385;51.088;6.572;2022-08-20T02:03:21;8.05;;;2.20;;
28074;SDS011;15385;51.088;6.572;2022-08-20T02:05:52;4.10;;;2.30;;
28074;SDS011;15385;51.088;6.572;2022-08-20T02:08:22;4.57;;;2.17;;
28074;SDS011;15385;51.088;6.572;2022-08-20T02:10:53;5.32;;;2.20;;
28074;SDS011;15385;51.088;6.572;2022-08-20T02:13:27;5.78;;;2.47;;
28074;SDS011;15385;51.088;6.572;2022-08-20T02:15:58;8.77;;;2.10;;
28074;SDS011;15385;51.088;6.572;2022-08-20T02:18:28;6.78;;;2.05;;
28074;SDS011;15385;51.088;6.572;2022-08-20T02:20:59;5.45;;;2.42;;
28074;SDS011;15385;51.088;6.572;2022-08-20T02:23:30;7.22;;;2.22;;
28074;SDS011;15385;51.088;6.572;2022-08-20T02:26:00;6.45;;;2.60;;
28074;SDS011;15385;51.088;6.572;2022-08-20T02:28:31;9.38;;;2.50;;
28074;SDS011;15385;51.088;6.572;2022-08-20T02:31:02;5.57;;;2.35;;
28074;SDS011;15385;51.088;6.572;2022-08-20T02:33:37;3.30;;;2.30;;
28074;SDS011;15385;51.088;6.572;2022-08-20T02:36:07;8.52;;;2.60;;
28074;SDS011;15385;51.088;6.572;2022-08-20T02:38:40;8.02;;;2.33;;
28074;SDS011;15385;51.088;6.572;2022-08-20T02:41:11;4.45;;;2.33;;
28074;SDS011;15385;51.088;6.572;2022-08-20T02:43:42;3.85;;;2.05;;
28074;SDS011;15385;51.088;6.572;2022-08-20T02:46:13;5.97;;;2.20;;
28074;SDS011;15385;51.088;6.572;2022-08-20T02:48:44;14.50;;;2.10;;
28074;SDS011;15385;51.088;6.572;2022-08-20T02:51:15;9.40;;;2.45;;
28074;SDS011;15385;51.088;6.572;2022-08-20T02:53:45;11.63;;;2.67;;
28074;SDS011;15385;51.088;6.572;2022-08-20T02:56:16;8.40;;;2.20;;
28074;SDS011;15385;51.088;6.572;2022-08-20T02:58:47;6.95;;;2.05;;
28074;SDS011;15385;51.088;6.572;2022-08-20T03:01:18;8.52;;;2.03;;
28074;SDS011;15385;51.088;6.572;2022-08-20T03:03:49;4.88;;;1.92;;
28074;SDS011;15385;51.088;6.572;2022-08-20T03:06:20;5.10;;;2.25;;
28074;SDS011;15385;51.088;6.572;2022-08-20T03:08:51;5.80;;;2.72;;
28074;SDS011;15385;51.088;6.572;2022-08-20T03:11:22;7.65;;;2.70;;
28074;SDS011;15385;51.088;6.572;2022-08-20T03:13:55;6.88;;;2.20;;
28074;SDS011;15385;51.088;6.572;2022-08-20T03:16:26;5.63;;;2.90;;
28074;SDS011;15385;51.088;6.572;2022-08-20T03:18:56;8.00;;;2.95;;
28074;SDS011;15385;51.088;6.572;2022-08-20T03:21:27;7.65;;;2.72;;
28074;SDS011;15385;51.088;6.572;2022-08-20T03:23:58;7.22;;;3.22;;
28074;SDS011;15385;51.088;6.572;2022-08-20T03:26:28;6.97;;;4.00;;
28074;SDS011;15385;51.088;6.572;2022-08-20T03:28:59;6.75;;;3.83;;
28074;SDS011;15385;51.088;6.572;2022-08-20T03:31:30;7.90;;;4.20;;
28074;SDS011;15385;51.088;6.572;2022-08-20T03:34:01;6.38;;;4.35;;
28074;SDS011;15385;51.088;6.572;2022-08-20T03:36:31;8.10;;;4.57;;
28074;SDS011;15385;51.088;6.572;2022-08-20T03:39:03;5.95;;;4.47;;
28074;SDS011;15385;51.088;6.572;2022-08-20T03:41:36;6.82;;;4.78;;
28074;SDS011;15385;51.088;6.572;2022-08-20T03:44:07;6.75;;;4.75;;
28074;SDS011;15385;51.088;6.572;2022-08-20T03:46:39;8.68;;;4.80;;
28074;SDS011;15385;51.088;6.572;2022-08-20T03:49:12;7.57;;;6.13;;
28074;SDS011;15385;51.088;6.572;2022-08-20T03:51:43;10.07;;;5.18;;
28074;SDS011;15385;51.088;6.572;2022-08-20T03:54:14;8.50;;;5.15;;
28074;SDS011;15385;51.088;6.572;2022-08-20T03:56:44;17.65;;;6.43;;
28074;SDS011;15385;51.088;6.572;2022-08-20T03:59:15;9.82;;;6.13;;
28074;SDS011;15385;51.088;6.572;2022-08-20T04:01:46;13.95;;;6.78;;
28074;SDS011;15385;51.088;6.572;2022-08-20T04:04:16;14.75;;;8.30;;
28074;SDS011;15385;51.088;6.572;2022-08-20T04:06:47;13.40;;;8.38;;
28074;SDS011;15385;51.088;6.572;2022-08-20T04:09:17;16.42;;;9.60;;
28074;SDS011;15385;51.088;6.572;2022-08-20T04:11:48;17.15;;;11.48;;
28074;SDS011;15385;51.088;6.572;2022-08-20T04:14:19;15.38;;;10.77;;
28074;SDS011;15385;51.088;6.572;2022-08-20T04:16:49;18.90;;;12.55;;
28074;SDS011;15385;51.088;6.572;2022-08-20T04:19:20;21.42;;;13.98;;
28074;SDS011;15385;51.088;6.572;2022-08-20T04:21:51;20.67;;;13.90;;
28074;SDS011;15385;51.088;6.572;2022-08-20T04:24:21;22.70;;;15.85;;
28074;SDS011;15385;51.088;6.572;2022-08-20T04:26:52;18.35;;;13.13;;
28074;SDS011;15385;51.088;6.572;2022-08-20T04:29:24;22.35;;;15.30;;
28074;SDS011;15385;51.088;6.572;2022-08-20T04:31:55;24.65;;;16.17;;
28074;SDS011;15385;51.088;6.572;2022-08-20T04:34:25;30.58;;;18.30;;
28074;SDS011;15385;51.088;6.572;2022-08-20T04:36:57;25.30;;;16.65;;
28074;SDS011;15385;51.088;6.572;2022-08-20T04:39:28;31.25;;;18.20;;
28074;SDS011;15385;51.088;6.572;2022-08-20T04:41:58;25.08;;;17.13;;
28074;SDS011;15385;51.088;6.572;2022-08-20T04:44:29;26.15;;;17.92;;
28074;SDS011;15385;51.088;6.572;2022-08-20T04:47:00;26.38;;;17.05;;
28074;SDS011;15385;51.088;6.572;2022-08-20T04:49:30;24.92;;;17.30;;
28074;SDS011;15385;51.088;6.572;2022-08-20T04:52:01;26.70;;;16.92;;
28074;SDS011;15385;51.088;6.572;2022-08-20T04:54:32;25.08;;;17.10;;
28074;SDS011;15385;51.088;6.572;2022-08-20T04:57:03;25.73;;;16.88;;
28074;SDS011;15385;51.088;6.572;2022-08-20T04:59:34;28.50;;;17.55;;
28074;SDS011;15385;51.088;6.572;2022-08-20T05:02:04;26.80;;;17.65;;
28074;SDS011;15385;51.088;6.572;2022-08-20T05:04:35;26.17;;;16.60;;
28074;SDS011;15385;51.088;6.572;2022-08-20T05:07:07;25.45;;;16.80;;
28074;SDS011;15385;51.088;6.572;2022-08-20T05:09:41;25.05;;;16.52;;
28074;SDS011;15385;51.088;6.572;2022-08-20T05:12:12;22.75;;;15.07;;
28074;SDS011;15385;51.088;6.572;2022-08-20T05:14:44;24.55;;;15.25;;
28074;SDS011;15385;51.088;6.572;2022-08-20T05:17:16;25.77;;;16.52;;
28074;SDS011;15385;51.088;6.572;2022-08-20T05:19:47;26.63;;;16.02;;
28074;SDS011;15385;51.088;6.572;2022-08-20T05:22:20;26.05;;;15.95;;
28074;SDS011;15385;51.088;6.572;2022-08-20T05:24:51;29.02;;;17.05;;
28074;SDS011;15385;51.088;6.572;2022-08-20T05:27:22;24.52;;;16.88;;
28074;SDS011;15385;51.088;6.572;2022-08-20T05:30:00;25.63;;;16.08;;
28074;SDS011;15385;51.088;6.572;2022-08-20T05:32:39;28.40;;;17.10;;
28074;SDS011;15385;51.088;6.572;2022-08-20T05:35:09;22.67;;;15.80;;
28074;SDS011;15385;51.088;6.572;2022-08-20T05:37:40;25.60;;;17.48;;
28074;SDS011;15385;51.088;6.572;2022-08-20T05:40:12;27.08;;;16.27;;
28074;SDS011;15385;51.088;6.572;2022-08-20T05:42:46;24.05;;;14.82;;
28074;SDS011;15385;51.088;6.572;2022-08-20T05:45:16;23.95;;;15.98;;
28074;SDS011;15385;51.088;6.572;2022-08-20T05:47:47;25.42;;;17.25;;
28074;SDS011;15385;51.088;6.572;2022-08-20T05:50:18;23.52;;;15.90;;
28074;SDS011;15385;51.088;6.572;2022-08-20T05:52:49;24.95;;;16.55;;
28074;SDS011;15385;51.088;6.572;2022-08-20T05:55:20;23.08;;;16.27;;
28074;SDS011;15385;51.088;6.572;2022-08-20T05:57:57;27.95;;;16.13;;
28074;SDS011;15385;51.088;6.572;2022-08-20T06:00:28;31.30;;;15.70;;
28074;SDS011;15385;51.088;6.572;2022-08-20T06:02:59;24.42;;;14.55;;
28074;SDS011;15385;51.088;6.572;2022-08-20T06:05:48;18.63;;;13.45;;
28074;SDS011;15385;51.088;6.572;2022-08-20T06:08:19;24.20;;;14.35;;
28074;SDS011;15385;51.088;6.572;2022-08-20T06:10:50;22.25;;;13.73;;
28074;SDS011;15385;51.088;6.572;2022-08-20T06:13:21;21.70;;;13.38;;
28074;SDS011;15385;51.088;6.572;2022-08-20T06:15:51;21.27;;;13.25;;
28074;SDS011;15385;51.088;6.572;2022-08-20T06:18:22;17.65;;;12.05;;
28074;SDS011;15385;51.088;6.572;2022-08-20T06:20:54;20.92;;;11.93;;
28074;SDS011;15385;51.088;6.572;2022-08-20T06:23:25;22.77;;;12.05;;
28074;SDS011;15385;51.088;6.572;2022-08-20T06:25:56;14.65;;;9.77;;
28074;SDS011;15385;51.088;6.572;2022-08-20T06:28:27;17.05;;;10.70;;
28074;SDS011;15385;51.088;6.572;2022-08-20T06:30:57;14.82;;;11.13;;
28074;SDS011;15385;51.088;6.572;2022-08-20T06:33:28;16.33;;;11.27;;
28074;SDS011;15385;51.088;6.572;2022-08-20T06:35:59;18.08;;;11.63;;
28074;SDS011;15385;51.088;6.572;2022-08-20T06:38:29;20.15;;;12.02;;
28074;SDS011;15385;51.088;6.572;2022-08-20T06:41:01;21.73;;;11.05;;
28074;SDS011;15385;51.088;6.572;2022-08-20T06:43:32;18.27;;;11.05;;
28074;SDS011;15385;51.088;6.572;2022-08-20T06:46:03;14.25;;;9.65;;
28074;SDS011;15385;51.088;6.572;2022-08-20T06:48:35;15.82;;;10.05;;
28074;SDS011;15385;51.088;6.572;2022-08-20T06:51:07;15.68;;;9.55;;
28074;SDS011;15385;51.088;6.572;2022-08-20T06:53:38;17.25;;;10.15;;
28074;SDS011;15385;51.088;6.572;2022-08-20T06:56:09;16.50;;;10.60;;
28074;SDS011;15385;51.088;6.572;2022-08-20T06:58:40;17.90;;;10.15;;
28074;SDS011;15385;51.088;6.572;2022-08-20T07:01:12;19.92;;;10.85;;
28074;SDS011;15385;51.088;6.572;2022-08-20T07:03:43;21.95;;;10.98;;
28074;SDS011;15385;51.088;6.572;2022-08-20T07:06:14;15.52;;;9.57;;
28074;SDS011;15385;51.088;6.572;2022-08-20T07:08:46;18.50;;;10.75;;
28074;SDS011;15385;51.088;6.572;2022-08-20T07:11:16;15.38;;;10.30;;
28074;SDS011;15385;51.088;6.572;2022-08-20T07:13:47;15.30;;;9.50;;
28074;SDS011;15385;51.088;6.572;2022-08-20T07:16:18;22.58;;;9.80;;
28074;SDS011;15385;51.088;6.572;2022-08-20T07:18:48;19.65;;;10.25;;
28074;SDS011;15385;51.088;6.572;2022-08-20T07:21:19;20.65;;;10.50;;
28074;SDS011;15385;51.088;6.572;2022-08-20T07:23:50;21.45;;;11.93;;
28074;SDS011;15385;51.088;6.572;2022-08-20T07:26:22;25.02;;;10.95;;
28074;SDS011;15385;51.088;6.572;2022-08-20T07:28:52;23.40;;;11.52;;
28074;SDS011;15385;51.088;6.572;2022-08-20T07:31:23;25.95;;;12.75;;
28074;SDS011;15385;51.088;6.572;2022-08-20T07:34:13;21.63;;;12.48;;
28074;SDS011;15385;51.088;6.572;2022-08-20T07:36:43;24.00;;;11.73;;
28074;SDS011;15385;51.088;6.572;2022-08-20T07:39:14;23.15;;;12.25;;
28074;SDS011;15385;51.088;6.572;2022-08-20T07:41:45;22.55;;;12.07;;
28074;SDS011;15385;51.088;6.572;2022-08-20T07:44:31;24.45;;;12.50;;
28074;SDS011;15385;51.088;6.572;2022-08-20T07:47:02;30.30;;;13.18;;
28074;SDS011;15385;51.088;6.572;2022-08-20T07:49:38;23.60;;;13.00;;
28074;SDS011;15385;51.088;6.572;2022-08-20T07:52:09;27.08;;;12.15;;
28074;SDS011;15385;51.088;6.572;2022-08-20T07:54:40;24.58;;;11.88;;
28074;SDS011;15385;51.088;6.572;2022-08-20T07:57:12;20.33;;;11.38;;
28074;SDS011;15385;51.088;6.572;2022-08-20T07:59:43;23.45;;;10.95;;
28074;SDS011;15385;51.088;6.572;2022-08-20T08:02:15;21.35;;;11.27;;
28074;SDS011;15385;51.088;6.572;2022-08-20T08:04:45;25.48;;;10.60;;
28074;SDS011;15385;51.088;6.572;2022-08-20T08:07:16;17.40;;;11.05;;
28074;SDS011;15385;51.088;6.572;2022-08-20T08:09:47;21.65;;;10.27;;
28074;SDS011;15385;51.088;6.572;2022-08-20T08:12:19;18.75;;;10.35;;
28074;SDS011;15385;51.088;6.572;2022-08-20T08:14:50;20.15;;;9.65;;
28074;SDS011;15385;51.088;6.572;2022-08-20T08:17:21;22.77;;;9.27;;
28074;SDS011;15385;51.088;6.572;2022-08-20T08:19:52;20.40;;;9.57;;
28074;SDS011;15385;51.088;6.572;2022-08-20T08:22:23;21.00;;;9.60;;
28074;SDS011;15385;51.088;6.572;2022-08-20T08:24:54;20.00;;;9.88;;
28074;SDS011;15385;51.088;6.572;2022-08-20T08:27:28;24.00;;;9.93;;
28074;SDS011;15385;51.088;6.572;2022-08-20T08:30:02;23.45;;;10.65;;
28074;SDS011;15385;51.088;6.572;2022-08-20T08:32:34;22.65;;;9.40;;
28074;SDS011;15385;51.088;6.572;2022-08-20T08:35:06;19.00;;;9.48;;
28074;SDS011;15385;51.088;6.572;2022-08-20T08:37:37;21.80;;;9.02;;
28074;SDS011;15385;51.088;6.572;2022-08-20T08:40:08;18.83;;;9.55;;
28074;SDS011;15385;51.088;6.572;2022-08-20T08:42:42;23.77;;;10.73;;
28074;SDS011;15385;51.088;6.572;2022-08-20T08:45:16;18.33;;;9.48;;
28074;SDS011;15385;51.088;6.572;2022-08-20T08:47:48;24.15;;;11.80;;
28074;SDS011;15385;51.088;6.572;2022-08-20T08:50:20;29.95;;;12.70;;
28074;SDS011;15385;51.088;6.572;2022-08-20T08:52:55;20.67;;;11.60;;
28074;SDS011;15385;51.088;6.572;2022-08-20T08:55:28;23.10;;;11.25;;
28074;SDS011;15385;51.088;6.572;2022-08-20T08:58:00;26.05;;;11.63;;
28074;SDS011;15385;51.088;6.572;2022-08-20T09:00:32;24.77;;;10.73;;
28074;SDS011;15385;51.088;6.572;2022-08-20T09:03:07;26.25;;;11.23;;
28074;SDS011;15385;51.088;6.572;2022-08-20T09:05:47;28.63;;;11.00;;
28074;SDS011;15385;51.088;6.572;2022-08-20T09:08:24;25.95;;;11.93;;
28074;SDS011;15385;51.088;6.572;2022-08-20T09:11:05;23.48;;;10.57;;
28074;SDS011;15385;51.088;6.572;2022-08-20T09:13:37;26.88;;;11.20;;
28074;SDS011;15385;51.088;6.572;2022-08-20T09:16:08;27.30;;;12.20;;
28074;SDS011;15385;51.088;6.572;2022-08-20T09:18:40;20.83;;;10.75;;
28074;SDS011;15385;51.088;6.572;2022-08-20T09:21:11;27.27;;;11.88;;
28074;SDS011;15385;51.088;6.572;2022-08-20T09:23:43;22.83;;;11.50;;
28074;SDS011;15385;51.088;6.572;2022-08-20T09:26:14;23.70;;;11.43;;
28074;SDS011;15385;51.088;6.572;2022-08-20T09:28:44;22.23;;;10.45;;
28074;SDS011;15385;51.088;6.572;2022-08-20T09:31:15;28.00;;;11.23;;
28074;SDS011;15385;51.088;6.572;2022-08-20T09:33:46;17.80;;;10.00;;
28074;SDS011;15385;51.088;6.572;2022-08-20T09:36:16;23.75;;;10.80;;
28074;SDS011;15385;51.088;6.572;2022-08-20T09:38:50;20.77;;;9.65;;
28074;SDS011;15385;51.088;6.572;2022-08-20T09:41:20;21.10;;;9.95;;
28074;SDS011;15385;51.088;6.572;2022-08-20T09:43:56;15.50;;;9.27;;
28074;SDS011;15385;51.088;6.572;2022-08-20T09:46:31;25.55;;;11.52;;
28074;SDS011;15385;51.088;6.572;2022-08-20T09:49:01;19.48;;;9.98;;
28074;SDS011;15385;51.088;6.572;2022-08-20T09:51:32;19.35;;;11.00;;
28074;SDS011;15385;51.088;6.572;2022-08-20T09:54:03;23.02;;;11.95;;
28074;SDS011;15385;51.088;6.572;2022-08-20T09:56:34;28.67;;;11.63;;
28074;SDS011;15385;51.088;6.572;2022-08-20T09:59:05;19.73;;;10.95;;
28074;SDS011;15385;51.088;6.572;2022-08-20T10:01:36;24.52;;;11.30;;
28074;SDS011;15385;51.088;6.572;2022-08-20T10:04:06;23.02;;;10.95;;
28074;SDS011;15385;51.088;6.572;2022-08-20T10:06:39;17.52;;;8.80;;
28074;SDS011;15385;51.088;6.572;2022-08-20T10:09:10;21.60;;;10.55;;
28074;SDS011;15385;51.088;6.572;2022-08-20T10:11:40;21.80;;;11.50;;
28074;SDS011;15385;51.088;6.572;2022-08-20T10:14:11;22.92;;;10.82;;
28074;SDS011;15385;51.088;6.572;2022-08-20T10:16:42;24.58;;;11.32;;
28074;SDS011;15385;51.088;6.572;2022-08-20T10:19:12;21.45;;;10.60;;
28074;SDS011;15385;51.088;6.572;2022-08-20T10:21:43;25.30;;;10.93;;
28074;SDS011;15385;51.088;6.572;2022-08-20T10:24:13;30.00;;;11.13;;
28074;SDS011;15385;51.088;6.572;2022-08-20T10:26:44;23.25;;;11.85;;
28074;SDS011;15385;51.088;6.572;2022-08-20T10:29:15;20.30;;;10.75;;
28074;SDS011;15385;51.088;6.572;2022-08-20T10:31:46;22.40;;;11.05;;
28074;SDS011;15385;51.088;6.572;2022-08-20T10:34:17;26.73;;;11.52;;
28074;SDS011;15385;51.088;6.572;2022-08-20T10:36:48;30.05;;;11.18;;
28074;SDS011;15385;51.088;6.572;2022-08-20T10:39:19;23.80;;;12.98;;
28074;SDS011;15385;51.088;6.572;2022-08-20T10:41:49;29.23;;;11.68;;
28074;SDS011;15385;51.088;6.572;2022-08-20T10:44:20;24.00;;;11.82;;
28074;SDS011;15385;51.088;6.572;2022-08-20T10:46:51;22.67;;;12.05;;
28074;SDS011;15385;51.088;6.572;2022-08-20T10:49:21;24.17;;;12.77;;
28074;SDS011;15385;51.088;6.572;2022-08-20T10:51:52;23.05;;;11.48;;
28074;SDS011;15385;51.088;6.572;2022-08-20T10:54:22;20.77;;;11.82;;
28074;SDS011;15385;51.088;6.572;2022-08-20T10:56:53;21.73;;;12.07;;
28074;SDS011;15385;51.088;6.572;2022-08-20T10:59:24;23.10;;;11.45;;
28074;SDS011;15385;51.088;6.572;2022-08-20T11:01:54;26.30;;;12.50;;
28074;SDS011;15385;51.088;6.572;2022-08-20T11:04:25;20.25;;;10.27;;
28074;SDS011;15385;51.088;6.572;2022-08-20T11:06:56;23.58;;;10.95;;
28074;SDS011;15385;51.088;6.572;2022-08-20T11:09:27;22.65;;;11.95;;
28074;SDS011;15385;51.088;6.572;2022-08-20T11:11:57;21.55;;;11.43;;
28074;SDS011;15385;51.088;6.572;2022-08-20T11:14:28;24.10;;;12.38;;
28074;SDS011;15385;51.088;6.572;2022-08-20T11:16:59;20.45;;;9.68;;
28074;SDS011;15385;51.088;6.572;2022-08-20T11:19:31;20.05;;;10.65;;
28074;SDS011;15385;51.088;6.572;2022-08-20T11:22:02;19.10;;;10.68;;
28074;SDS011;15385;51.088;6.572;2022-08-20T11:24:32;20.83;;;11.63;;
28074;SDS011;15385;51.088;6.572;2022-08-20T11:27:04;29.77;;;12.32;;
28074;SDS011;15385;51.088;6.572;2022-08-20T11:29:37;24.33;;;11.73;;
28074;SDS011;15385;51.088;6.572;2022-08-20T11:32:08;18.48;;;10.50;;
28074;SDS011;15385;51.088;6.572;2022-08-20T11:34:38;21.90;;;11.35;;
28074;SDS011;15385;51.088;6.572;2022-08-20T11:37:09;18.73;;;10.95;;
28074;SDS011;15385;51.088;6.572;2022-08-20T11:39:42;21.63;;;10.23;;
28074;SDS011;15385;51.088;6.572;2022-08-20T11:42:13;21.48;;;9.60;;
28074;SDS011;15385;51.088;6.572;2022-08-20T11:44:44;16.23;;;8.65;;
28074;SDS011;15385;51.088;6.572;2022-08-20T11:47:24;20.15;;;7.53;;
28074;SDS011;15385;51.088;6.572;2022-08-20T11:50:02;12.65;;;6.40;;
28074;SDS011;15385;51.088;6.572;2022-08-20T11:52:35;15.18;;;7.03;;
28074;SDS011;15385;51.088;6.572;2022-08-20T11:55:07;21.48;;;9.00;;
28074;SDS011;15385;51.088;6.572;2022-08-20T11:57:42;16.20;;;8.13;;
28074;SDS011;15385;51.088;6.572;2022-08-20T12:00:19;16.20;;;8.00;;
28074;SDS011;15385;51.088;6.572;2022-08-20T12:02:52;14.88;;;7.90;;
28074;SDS011;15385;51.088;6.572;2022-08-20T12:05:23;16.40;;;7.68;;
28074;SDS011;15385;51.088;6.572;2022-08-20T12:07:56;17.13;;;7.95;;
28074;SDS011;15385;51.088;6.572;2022-08-20T12:10:30;14.55;;;7.32;;
28074;SDS011;15385;51.088;6.572;2022-08-20T12:13:01;13.32;;;7.13;;
28074;SDS011;15385;51.088;6.572;2022-08-20T12:15:35;14.98;;;6.55;;
28074;SDS011;15385;51.088;6.572;2022-08-20T12:18:06;14.35;;;6.30;;
28074;SDS011;15385;51.088;6.572;2022-08-20T12:20:38;13.18;;;6.30;;
28074;SDS011;15385;51.088;6.572;2022-08-20T12:23:11;13.57;;;6.60;;
28074;SDS011;15385;51.088;6.572;2022-08-20T12:25:45;12.82;;;6.20;;
28074;SDS011;15385;51.088;6.572;2022-08-20T12:28:15;8.75;;;4.32;;
28074;SDS011;15385;51.088;6.572;2022-08-20T12:30:46;14.13;;;6.47;;
28074;SDS011;15385;51.088;6.572;2022-08-20T12:33:17;18.75;;;8.82;;
28074;SDS011;15385;51.088;6.572;2022-08-20T12:35:47;11.20;;;5.25;;
28074;SDS011;15385;51.088;6.572;2022-08-20T12:38:21;16.83;;;6.93;;
28074;SDS011;15385;51.088;6.572;2022-08-20T12:40:51;10.40;;;5.22;;
28074;SDS011;15385;51.088;6.572;2022-08-20T12:43:22;11.63;;;3.97;;
28074;SDS011;15385;51.088;6.572;2022-08-20T12:45:53;10.85;;;3.95;;
28074;SDS011;15385;51.088;6.572;2022-08-20T12:48:23;12.93;;;4.45;;
28074;SDS011;15385;51.088;6.572;2022-08-20T12:50:54;10.38;;;4.95;;
28074;SDS011;15385;51.088;6.572;2022-08-20T12:53:25;9.80;;;5.07;;
28074;SDS011;15385;51.088;6.572;2022-08-20T12:55:55;11.23;;;4.18;;
28074;SDS011;15385;51.088;6.572;2022-08-20T12:58:26;10.10;;;4.78;;
28074;SDS011;15385;51.088;6.572;2022-08-20T13:00:57;10.48;;;4.50;;
28074;SDS011;15385;51.088;6.572;2022-08-20T13:03:27;8.32;;;4.47;;
28074;SDS011;15385;51.088;6.572;2022-08-20T13:05:59;9.52;;;4.80;;
28074;SDS011;15385;51.088;6.572;2022-08-20T13:08:30;8.25;;;4.20;;
28074;SDS011;15385;51.088;6.572;2022-08-20T13:11:01;11.15;;;4.15;;
28074;SDS011;15385;51.088;6.572;2022-08-20T13:13:31;6.05;;;3.30;;
28074;SDS011;15385;51.088;6.572;2022-08-20T13:16:02;13.70;;;3.13;;
28074;SDS011;15385;51.088;6.572;2022-08-20T13:18:33;10.07;;;2.92;;
28074;SDS011;15385;51.088;6.572;2022-08-20T13:21:03;10.35;;;2.85;;
28074;SDS011;15385;51.088;6.572;2022-08-20T13:23:34;9.52;;;2.88;;
28074;SDS011;15385;51.088;6.572;2022-08-20T13:26:05;11.25;;;3.03;;
28074;SDS011;15385;51.088;6.572;2022-08-20T13:28:36;10.27;;;2.78;;
28074;SDS011;15385;51.088;6.572;2022-08-20T13:31:07;7.47;;;2.63;;
28074;SDS011;15385;51.088;6.572;2022-08-20T13:33:37;8.43;;;2.53;;
28074;SDS011;15385;51.088;6.572;2022-08-20T13:36:08;7.80;;;2.03;;
28074;SDS011;15385;51.088;6.572;2022-08-20T13:38:38;8.02;;;2.20;;
28074;SDS011;15385;51.088;6.572;2022-08-20T13:41:09;6.07;;;1.85;;
28074;SDS011;15385;51.088;6.572;2022-08-20T13:43:40;3.97;;;1.83;;
28074;SDS011;15385;51.088;6.572;2022-08-20T13:46:11;7.70;;;2.50;;
28074;SDS011;15385;51.088;6.572;2022-08-20T13:48:41;4.88;;;1.80;;
28074;SDS011;15385;51.088;6.572;2022-08-20T13:51:12;9.02;;;2.10;;
28074;SDS011;15385;51.088;6.572;2022-08-20T13:53:43;9.60;;;1.60;;
28074;SDS011;15385;51.088;6.572;2022-08-20T13:56:14;7.13;;;1.77;;
28074;SDS011;15385;51.088;6.572;2022-08-20T13:58:44;5.03;;;1.60;;
28074;SDS011;15385;51.088;6.572;2022-08-20T14:01:15;12.60;;;1.98;;
28074;SDS011;15385;51.088;6.572;2022-08-20T14:03:46;5.85;;;1.70;;
28074;SDS011;15385;51.088;6.572;2022-08-20T14:06:16;6.22;;;1.95;;
28074;SDS011;15385;51.088;6.572;2022-08-20T14:08:47;5.20;;;1.50;;
28074;SDS011;15385;51.088;6.572;2022-08-20T14:11:18;4.10;;;1.73;;
28074;SDS011;15385;51.088;6.572;2022-08-20T14:13:48;5.45;;;1.52;;
28074;SDS011;15385;51.088;6.572;2022-08-20T14:16:19;4.72;;;1.75;;
28074;SDS011;15385;51.088;6.572;2022-08-20T14:18:50;8.15;;;1.88;;
28074;SDS011;15385;51.088;6.572;2022-08-20T14:21:21;7.90;;;1.80;;
28074;SDS011;15385;51.088;6.572;2022-08-20T14:23:53;3.28;;;1.40;;
28074;SDS011;15385;51.088;6.572;2022-08-20T14:26:23;5.63;;;1.90;;
28074;SDS011;15385;51.088;6.572;2022-08-20T14:28:54;4.45;;;1.73;;
28074;SDS011;15385;51.088;6.572;2022-08-20T14:31:25;8.27;;;1.83;;
28074;SDS011;15385;51.088;6.572;2022-08-20T14:33:55;3.72;;;1.75;;
28074;SDS011;15385;51.088;6.572;2022-08-20T14:36:26;6.65;;;2.78;;
28074;SDS011;15385;51.088;6.572;2022-08-20T14:38:56;8.18;;;2.58;;
28074;SDS011;15385;51.088;6.572;2022-08-20T14:41:27;7.93;;;2.25;;
28074;SDS011;15385;51.088;6.572;2022-08-20T14:43:58;7.72;;;2.97;;
28074;SDS011;15385;51.088;6.572;2022-08-20T14:46:31;8.35;;;2.13;;
28074;SDS011;15385;51.088;6.572;2022-08-20T14:49:02;5.70;;;2.33;;
28074;SDS011;15385;51.088;6.572;2022-08-20T14:51:35;4.93;;;2.30;;
28074;SDS011;15385;51.088;6.572;2022-08-20T14:54:07;3.90;;;1.65;;
28074;SDS011;15385;51.088;6.572;2022-08-20T14:56:38;5.40;;;2.70;;
28074;SDS011;15385;51.088;6.572;2022-08-20T14:59:09;8.68;;;3.03;;
28074;SDS011;15385;51.088;6.572;2022-08-20T15:01:39;8.57;;;3.20;;
28074;SDS011;15385;51.088;6.572;2022-08-20T15:04:10;5.57;;;2.40;;
28074;SDS011;15385;51.088;6.572;2022-08-20T15:06:40;7.97;;;2.40;;
28074;SDS011;15385;51.088;6.572;2022-08-20T15:09:11;7.38;;;2.75;;